Terminal Aerodrome Forecast
Issued by NWS Cleveland, OH

Home | Current Version | Previous Version | Text Only | Print | Product List | Glossary On
Versions: 1 2 3 4 5 6 7 8 9 10 11 12 13 14 15
000
FTUS41 KCLE 290530
TAFERI
TAF
KERI 290530Z 2906/3006 08008KT P6SM SCT035 OVC120
     FM290900 11012G20KT P6SM VCSH SCT015 OVC025
     FM291400 09018G32KT P6SM SCT015 OVC035
     FM292300 08018G32KT 6SM -RA OVC015
     FM300400 10014G22KT P6SM VCSH SCT015 OVC025=

USA.gov is the U.S. government's official web portal to all federal, state and local government web resources and services.